Etusivu
METAR-TAF:

METAR-TAF

Lentoasemat :

Air Force Base Hoedspruit - Eastgate Airport

Hoedspruit, Etelä-Afrikka

Leveyspiiri: 24-21-17S, Pituuspiiri: 31-03-01E, korkeus merenpinnasta: 531 m

Tämänhetkinen sää

Tämä raportti tehtiin 58 minuuttia sitten, kello 09.00 UTC
Tuuli 2 kn etelästä
Lämpötila 28°C
Kosteus 55%
Ilmanpaine 1016 hPa

METAR: FAHS 260900Z AUTO 17002KT //// // ////// 28/18 Q1016

Aika: 11:58 (09:58 UTC)

Sääennuste

Tämä raportti tehtiin 58 minuuttia sitten, kello 09.00 UTC
Ennuste voimassa 26. päivästä klo 10 UTC - 26. päivään klo 18 UTC
Tuuli 3 kn eri suunnista
Näkyvyys 10 km tai enemmän
ei pilviä alle 1500 m:ssä eikä cumulonimbus-pilviä
Tulossa
26. päivästä klo 16 UTC - 26. päivään klo 18 UTC
Tuuli 10 kn etelästä/kaakosta
Hajanaisia pilviä 2000 ft:n korkeudessa

TAF: FAHS 260900Z 2610/2618 VRB03KT CAVOK TX32/2613Z TN23/2618Z BECMG 2616/2618 16010KT SCT020

Säähavainnot ja -ennusteet yli 4000 lentoasemalta (METAR- ja TAF-raportit).

Käytössä olevat sääasemat on merkitty karttaan keltaisilla ja punaisilla pisteillä.

Aseta hiiri pisteen päälle nähdäksesi sääaseman nimen.

Klikkaa sitten nähdäksesi säähavainnot ja -ennusteet.

Kartan vaihtaminen: klikkaa mustalla rastilla varustettuja vihreitä pisteitä, niin voit zoomata sisään; viivalla varustettua vihreää pistettä, niin voit zoomata ulos tai vihreitä nuolia, niin pääset viereisille kartoille.


METAR-TAF: